createdAt,value
2018-08-23T00:01:28.978Z,91.20
2018-08-23T00:04:03.167Z,91.10
2018-08-23T00:06:31.499Z,91.50
2018-08-23T00:08:59.725Z,91.30
2018-08-23T00:11:30.731Z,91.60
2018-08-23T00:13:59.064Z,92.00
2018-08-23T00:16:32.996Z,92.30
2018-08-23T00:19:01.899Z,92.40
2018-08-23T00:21:30.186Z,92.10
2018-08-23T00:24:22.698Z,91.10
2018-08-23T00:26:59.029Z,91.00
2018-08-23T00:29:28.466Z,91.80
2018-08-23T00:33:04.062Z,91.80
2018-08-23T00:35:33.049Z,92.00
2018-08-23T00:38:01.834Z,91.90
2018-08-23T00:40:30.109Z,92.00
2018-08-23T00:43:04.246Z,92.40
2018-08-23T00:45:32.475Z,92.80
2018-08-23T00:48:00.715Z,92.60
2018-08-23T00:51:03.460Z,92.50
2018-08-23T00:53:34.100Z,92.70
2018-08-23T00:56:15.259Z,92.70
2018-08-23T00:59:03.184Z,93.10
2018-08-23T01:01:32.306Z,93.20
2018-08-23T01:04:00.538Z,93.10
2018-08-23T01:06:40.553Z,93.10
2018-08-23T01:09:09.837Z,92.90
2018-08-23T01:11:38.122Z,93.00
2018-08-23T01:14:06.410Z,93.10
2018-08-23T01:16:34.634Z,93.10
2018-08-23T01:19:08.178Z,93.40
2018-08-23T01:21:38.166Z,93.40
2018-08-23T01:24:06.562Z,93.00
2018-08-23T01:26:35.241Z,93.10
2018-08-23T01:29:13.506Z,93.00
2018-08-23T01:31:41.755Z,93.20
2018-08-23T01:34:09.995Z,93.00
2018-08-23T01:36:38.228Z,92.70
2018-08-23T01:39:07.741Z,92.90
2018-08-23T01:41:35.967Z,93.00
2018-08-23T01:44:04.207Z,93.30
2018-08-23T01:46:47.915Z,93.60
2018-08-23T01:49:18.626Z,93.90
2018-08-23T01:51:46.904Z,93.80
2018-08-23T01:54:15.171Z,93.60
2018-08-23T01:56:43.387Z,93.50
2018-08-23T01:59:11.639Z,94.10
2018-08-23T02:01:39.875Z,94.10
2018-08-23T02:04:08.092Z,94.00
2018-08-23T02:06:36.539Z,94.00
2018-08-23T02:09:07.370Z,93.90
2018-08-23T02:11:35.590Z,94.20
2018-08-23T02:14:03.824Z,94.20
2018-08-23T02:16:44.115Z,94.00
2018-08-23T02:19:12.346Z,94.10
2018-08-23T02:21:40.565Z,94.10
2018-08-23T02:24:08.811Z,93.80
2018-08-23T02:26:37.039Z,93.80
2018-08-23T02:29:05.443Z,94.10
2018-08-23T02:31:33.683Z,94.30
2018-08-23T02:34:01.923Z,94.30
2018-08-23T02:36:30.152Z,94.50
2018-08-23T02:38:59.823Z,94.60
2018-08-23T02:41:28.322Z,94.70
2018-08-23T02:43:56.568Z,94.50
2018-08-23T02:46:24.799Z,94.70
2018-08-23T02:48:53.059Z,94.60
2018-08-23T02:51:25.786Z,94.90
2018-08-23T02:53:54.029Z,95.30
2018-08-23T02:56:22.270Z,95.50
2018-08-23T02:59:00.846Z,95.20
2018-08-23T03:01:32.632Z,95.10
2018-08-23T03:04:11.857Z,95.20
2018-08-23T03:07:12.882Z,95.10
2018-08-23T03:09:43.548Z,95.30
2018-08-23T03:12:14.681Z,95.10
2018-08-23T03:14:42.909Z,94.90
2018-08-23T03:17:12.033Z,94.80
2018-08-23T03:19:50.490Z,94.90
2018-08-23T03:22:18.815Z,94.50
2018-08-23T03:24:47.052Z,94.40
2018-08-23T03:27:15.272Z,94.40
2018-08-23T03:29:43.494Z,94.40
2018-08-23T03:32:11.724Z,94.80
2018-08-23T03:34:39.951Z,94.70
2018-08-23T03:37:08.186Z,94.60
2018-08-23T03:39:36.422Z,94.70
2018-08-23T03:42:11.028Z,95.00
2018-08-23T03:44:39.609Z,95.40
2018-08-23T03:47:07.822Z,95.80
2018-08-23T03:49:41.554Z,95.70
2018-08-23T03:52:09.793Z,96.00
2018-08-23T03:54:38.002Z,96.10
2018-08-23T03:57:17.669Z,95.90
2018-08-23T03:59:47.055Z,95.90
2018-08-23T04:02:16.275Z,96.10
2018-08-23T04:04:46.274Z,96.40
2018-08-23T04:07:14.668Z,96.70
2018-08-23T04:09:43.343Z,96.70
2018-08-23T04:12:11.571Z,96.40
2018-08-23T04:14:39.795Z,96.10
2018-08-23T04:17:10.237Z,96.30
2018-08-23T04:19:41.567Z,96.60
2018-08-23T04:22:09.800Z,96.80
2018-08-23T04:24:42.527Z,97.00
2018-08-23T04:27:11.722Z,97.20
2018-08-23T04:29:45.916Z,97.40
2018-08-23T04:32:15.048Z,97.30
2018-08-23T04:34:43.254Z,97.40
2018-08-23T04:37:11.497Z,97.10
2018-08-23T04:39:44.605Z,97.70
2018-08-23T04:42:12.835Z,97.70
2018-08-23T04:44:48.282Z,97.70
2018-08-23T04:47:16.527Z,97.90
2018-08-23T04:49:44.766Z,98.00
2018-08-23T04:52:13.004Z,98.10
2018-08-23T04:54:41.240Z,98.40
2018-08-23T04:57:09.477Z,98.60
2018-08-23T04:59:37.718Z,98.50
2018-08-23T05:02:06.240Z,98.00
2018-08-23T05:04:34.463Z,97.90
2018-08-23T05:07:02.704Z,98.10
2018-08-23T05:09:30.926Z,98.60
2018-08-23T05:11:59.165Z,98.00
2018-08-23T05:14:27.389Z,98.20
2018-08-23T05:16:55.618Z,98.50
2018-08-23T05:19:23.841Z,97.20
2018-08-23T05:21:52.091Z,97.40
2018-08-23T05:24:23.451Z,97.50
2018-08-23T05:26:51.747Z,96.80
2018-08-23T05:29:19.982Z,97.00
2018-08-23T05:31:48.222Z,96.90
2018-08-23T05:34:16.451Z,96.80
2018-08-23T05:36:44.686Z,96.90
2018-08-23T05:39:12.907Z,97.10
2018-08-23T05:41:41.137Z,97.00
2018-08-23T05:44:21.145Z,97.20
2018-08-23T05:46:56.113Z,97.30
2018-08-23T05:49:24.794Z,97.00
2018-08-23T05:51:56.082Z,97.30
2018-08-23T05:54:24.335Z,97.10
2018-08-23T05:56:52.610Z,96.70
2018-08-23T05:59:23.188Z,96.50
2018-08-23T06:01:51.541Z,96.40
2018-08-23T06:04:29.927Z,96.50
2018-08-23T06:06:58.142Z,96.20
2018-08-23T06:09:26.380Z,95.20
2018-08-23T06:11:54.602Z,95.40
2018-08-23T06:14:22.828Z,95.10
2018-08-23T06:16:58.553Z,94.90
2018-08-23T06:19:27.870Z,94.90
2018-08-23T06:21:56.338Z,95.20
2018-08-23T06:24:28.318Z,95.20
2018-08-23T06:26:58.822Z,94.80
2018-08-23T06:29:35.087Z,94.80
2018-08-23T06:32:10.582Z,95.30
2018-08-23T06:34:48.052Z,96.10
2018-08-23T06:37:16.814Z,95.10
2018-08-23T06:39:45.048Z,94.00
2018-08-23T06:42:13.280Z,94.20
2018-08-23T06:44:46.915Z,94.10
2018-08-23T06:47:18.531Z,93.70
2018-08-23T06:49:47.950Z,93.50
2018-08-23T06:52:26.971Z,93.40
2018-08-23T06:54:55.659Z,93.00
2018-08-23T06:57:23.882Z,92.80
2018-08-23T06:59:52.117Z,92.80
2018-08-23T07:02:20.338Z,92.70
2018-08-23T07:04:48.568Z,93.00
2018-08-23T07:07:18.202Z,92.60
2018-08-23T07:09:46.456Z,92.80
2018-08-23T07:12:19.220Z,93.10
2018-08-23T07:14:48.626Z,93.00
2018-08-23T07:17:22.404Z,93.20
2018-08-23T07:19:50.826Z,93.00
2018-08-23T07:22:20.739Z,92.80
2018-08-23T07:24:49.723Z,92.90
2018-08-23T07:27:19.031Z,92.30
2018-08-23T07:29:48.570Z,92.20
2018-08-23T07:32:19.863Z,92.10
2018-08-23T07:34:58.204Z,91.80
2018-08-23T07:37:26.418Z,91.20
2018-08-23T07:39:59.810Z,90.60
2018-08-23T07:42:30.175Z,90.30
2018-08-23T07:44:59.096Z,90.00
2018-08-23T07:47:27.512Z,85.40
2018-08-23T07:49:56.847Z,83.90
2018-08-23T07:52:26.194Z,80.90
2018-08-23T07:54:54.446Z,79.70
2018-08-23T07:57:22.678Z,81.00
2018-08-23T07:59:55.118Z,78.90
2018-08-23T08:02:23.352Z,77.00
2018-08-23T08:04:51.563Z,71.70
2018-08-23T08:07:25.263Z,72.20
2018-08-23T08:09:53.508Z,71.10
2018-08-23T08:12:27.058Z,67.60
2018-08-23T08:14:55.361Z,67.00
2018-08-23T08:17:30.774Z,66.10
2018-08-23T08:19:58.973Z,65.20
2018-08-23T08:22:27.207Z,64.00
2018-08-23T08:25:06.779Z,64.30
2018-08-23T08:27:34.994Z,62.70
2018-08-23T08:30:03.229Z,61.40
2018-08-23T08:32:31.511Z,61.10
2018-08-23T08:34:59.774Z,59.90
2018-08-23T08:37:28.634Z,60.10
2018-08-23T08:39:57.094Z,59.90
2018-08-23T08:42:26.663Z,59.20
2018-08-23T08:44:59.188Z,59.00
2018-08-23T08:47:27.475Z,59.30
2018-08-23T08:49:55.710Z,58.20
2018-08-23T08:52:23.934Z,57.40
2018-08-23T08:54:52.176Z,55.60
2018-08-23T08:57:24.475Z,55.60
2018-08-23T08:59:53.246Z,55.70
2018-08-23T09:02:21.475Z,55.00
2018-08-23T09:04:49.685Z,54.20
2018-08-23T09:07:17.905Z,55.50
2018-08-23T09:09:46.140Z,54.20
2018-08-23T09:12:14.382Z,54.20
2018-08-23T09:14:43.221Z,53.80
2018-08-23T09:17:28.235Z,54.00
2018-08-23T09:20:04.757Z,53.80
2018-08-23T09:22:40.092Z,52.90
2018-08-23T09:25:10.574Z,53.30
2018-08-23T09:27:41.757Z,53.10
2018-08-23T09:30:15.435Z,52.00
2018-08-23T09:32:52.411Z,52.10
2018-08-23T09:35:22.580Z,51.90
2018-08-23T09:37:55.077Z,51.90
2018-08-23T09:40:24.537Z,51.30
2018-08-23T09:42:52.785Z,50.60
2018-08-23T09:45:21.016Z,51.70
2018-08-23T09:47:49.232Z,52.20
2018-08-23T09:50:17.541Z,50.20
2018-08-23T09:52:49.835Z,50.20
2018-08-23T09:55:19.322Z,49.90
2018-08-23T09:57:47.927Z,50.10
2018-08-23T10:00:21.557Z,48.80
2018-08-23T10:02:55.178Z,49.20
2018-08-23T10:05:28.825Z,49.20
2018-08-23T10:08:02.588Z,49.40
2018-08-23T10:11:36.844Z,49.00
2018-08-23T10:14:10.293Z,48.40
2018-08-23T10:16:43.775Z,48.30
2018-08-23T10:19:17.499Z,47.60
2018-08-23T10:21:51.238Z,47.70
2018-08-23T10:24:24.555Z,47.40
2018-08-23T10:26:53.323Z,47.40
2018-08-23T10:29:21.879Z,46.30
2018-08-23T10:31:50.127Z,46.20
2018-08-23T10:34:18.351Z,44.70
2018-08-23T10:36:46.558Z,45.10
2018-08-23T10:39:14.783Z,44.60
2018-08-23T10:41:42.995Z,44.90
2018-08-23T10:44:11.226Z,45.40
2018-08-23T10:46:44.688Z,45.50
2018-08-23T10:49:12.907Z,44.50
2018-08-23T10:51:41.333Z,44.60
2018-08-23T10:54:09.565Z,44.70
2018-08-23T10:56:37.777Z,44.70
2018-08-23T10:59:06.023Z,44.60
2018-08-23T11:01:34.227Z,43.30
2018-08-23T11:04:05.427Z,44.20
2018-08-23T11:06:34.013Z,43.80
2018-08-23T11:09:07.529Z,44.50
2018-08-23T11:11:36.760Z,45.30
2018-08-23T11:14:10.445Z,45.90
2018-08-23T11:16:44.138Z,47.30
2018-08-23T11:19:17.731Z,47.60
2018-08-23T11:21:45.956Z,46.90
2018-08-23T11:24:14.174Z,47.00
2018-08-23T11:26:42.397Z,46.50
2018-08-23T11:29:10.615Z,45.80
2018-08-23T11:31:38.848Z,45.40
2018-08-23T11:34:07.123Z,44.40
2018-08-23T11:36:35.347Z,45.10
2018-08-23T11:39:04.022Z,45.10
2018-08-23T11:41:32.235Z,45.10
2018-08-23T11:44:00.464Z,44.40
2018-08-23T11:46:28.667Z,43.80
2018-08-23T11:48:56.968Z,44.30
2018-08-23T11:51:25.106Z,44.80
2018-08-23T11:53:53.384Z,45.00
2018-08-23T11:56:21.582Z,45.00
2018-08-23T11:58:49.787Z,45.20
2018-08-23T12:01:18.071Z,43.70
2018-08-23T12:03:46.639Z,43.70
2018-08-23T12:06:16.054Z,43.80
2018-08-23T12:08:44.636Z,44.00
2018-08-23T12:11:12.857Z,44.60
2018-08-23T12:13:45.398Z,44.90
2018-08-23T12:16:13.614Z,45.30
2018-08-23T12:18:41.827Z,45.70
2018-08-23T12:21:10.051Z,46.30
2018-08-23T12:23:38.266Z,46.30
2018-08-23T12:26:06.517Z,44.70
2018-08-23T12:28:40.169Z,44.40
2018-08-23T12:31:08.426Z,45.40
2018-08-23T12:33:36.659Z,45.40
2018-08-23T12:36:06.776Z,46.30
2018-08-23T12:38:40.467Z,45.50
2018-08-23T12:41:14.179Z,45.90
2018-08-23T12:43:47.854Z,46.10
2018-08-23T12:46:16.763Z,47.60
2018-08-23T12:48:45.514Z,48.60
2018-08-23T12:51:13.775Z,48.40
2018-08-23T12:53:41.992Z,48.60
2018-08-23T12:56:10.237Z,49.20
2018-08-23T12:58:38.455Z,48.40
2018-08-23T13:01:06.675Z,47.60
2018-08-23T13:03:34.960Z,48.60
2018-08-23T13:06:03.214Z,47.70
2018-08-23T13:08:31.367Z,47.90
2018-08-23T13:10:59.670Z,48.40
2018-08-23T13:13:27.850Z,48.50
2018-08-23T13:15:56.072Z,49.40
2018-08-23T13:18:24.307Z,49.60
2018-08-23T13:20:52.522Z,49.50
2018-08-23T13:23:20.741Z,49.90
2018-08-23T13:25:54.513Z,49.70
2018-08-23T13:28:22.965Z,50.10
2018-08-23T13:30:51.165Z,50.30
2018-08-23T13:33:19.394Z,49.60
2018-08-23T13:35:47.626Z,50.00
2018-08-23T13:38:15.924Z,49.80
2018-08-23T13:40:44.078Z,49.80
2018-08-23T13:43:12.310Z,49.40
2018-08-23T13:45:40.526Z,50.10
2018-08-23T13:48:08.777Z,49.80
2018-08-23T13:50:36.996Z,50.30
2018-08-23T13:53:05.226Z,49.20
2018-08-23T13:55:33.446Z,48.70
2018-08-23T13:58:01.665Z,49.00
2018-08-23T14:00:35.436Z,47.60
2018-08-23T14:03:03.657Z,47.50
2018-08-23T14:05:31.875Z,46.90
2018-08-23T14:08:00.103Z,46.60
2018-08-23T14:10:28.312Z,47.00
2018-08-23T14:12:56.611Z,47.00
2018-08-23T14:15:30.067Z,46.60
2018-08-23T14:17:58.383Z,46.80
2018-08-23T14:20:26.601Z,47.20
2018-08-23T14:22:54.874Z,47.90
2018-08-23T14:25:23.099Z,48.00
2018-08-23T14:27:51.327Z,47.70
2018-08-23T14:30:19.548Z,48.00
2018-08-23T14:32:47.787Z,48.20
2018-08-23T14:35:16.003Z,47.00
2018-08-23T14:37:44.236Z,47.50
2018-08-23T14:40:12.472Z,48.40
2018-08-23T14:42:40.682Z,48.80
2018-08-23T14:45:08.913Z,48.70
2018-08-23T14:47:42.623Z,47.80
2018-08-23T14:50:10.847Z,48.50
2018-08-23T14:52:39.054Z,48.40
2018-08-23T14:55:07.321Z,48.40
2018-08-23T14:57:36.625Z,49.40
2018-08-23T15:00:04.891Z,50.60
2018-08-23T15:02:33.111Z,49.10
2018-08-23T15:05:01.329Z,50.00
2018-08-23T15:07:29.572Z,49.80
2018-08-23T15:09:57.783Z,49.60
2018-08-23T15:12:25.987Z,49.80
2018-08-23T15:14:54.220Z,49.90
2018-08-23T15:17:22.426Z,49.90
2018-08-23T15:19:50.655Z,50.40
2018-08-23T15:22:18.879Z,50.70
2018-08-23T15:24:47.115Z,51.70
2018-08-23T15:27:15.425Z,51.30
2018-08-23T15:29:43.555Z,52.10
2018-08-23T15:32:11.785Z,50.30
2018-08-23T15:34:40.012Z,50.50
2018-08-23T15:37:08.216Z,50.30
2018-08-23T15:39:36.529Z,49.60
2018-08-23T15:42:04.676Z,49.10
2018-08-23T15:44:32.902Z,49.00
2018-08-23T15:47:01.175Z,47.70
2018-08-23T15:49:29.389Z,47.60
2018-08-23T15:51:57.606Z,47.70
2018-08-23T15:54:25.840Z,48.10
2018-08-23T15:56:54.048Z,48.70
2018-08-23T15:59:22.261Z,49.40
2018-08-23T16:01:50.481Z,49.60
2018-08-23T16:04:18.717Z,50.10
2018-08-23T16:06:46.931Z,49.70
2018-08-23T16:09:15.147Z,50.10
2018-08-23T16:11:43.367Z,49.60
2018-08-23T16:14:11.591Z,50.40
2018-08-23T16:16:45.279Z,50.30
2018-08-23T16:19:18.938Z,50.60
2018-08-23T16:21:52.515Z,51.00
2018-08-23T16:24:20.741Z,49.90
2018-08-23T16:26:54.324Z,50.50
2018-08-23T16:29:22.551Z,50.40
2018-08-23T16:31:50.797Z,51.20
2018-08-23T16:34:19.033Z,51.30
2018-08-23T16:36:47.249Z,49.70
2018-08-23T16:39:15.472Z,50.50
2018-08-23T16:41:43.683Z,51.30
2018-08-23T16:44:11.929Z,51.30
2018-08-23T16:46:40.130Z,50.50
2018-08-23T16:49:08.392Z,50.50
2018-08-23T16:51:36.629Z,51.00
2018-08-23T16:54:04.892Z,49.20
2018-08-23T16:56:33.114Z,50.70
2018-08-23T16:59:01.334Z,51.80
2018-08-23T17:01:29.574Z,52.70
2018-08-23T17:03:58.263Z,53.20
2018-08-23T17:06:27.771Z,53.10
2018-08-23T17:08:56.245Z,53.70
2018-08-23T17:11:24.467Z,54.50
2018-08-23T17:13:52.679Z,55.10
2018-08-23T17:16:26.338Z,54.80
2018-08-23T17:18:54.557Z,55.10
2018-08-23T17:21:22.828Z,55.80
2018-08-23T17:23:51.044Z,56.30
2018-08-23T17:26:19.280Z,56.20
2018-08-23T17:28:47.490Z,53.90
2018-08-23T17:31:15.728Z,54.80
2018-08-23T17:33:43.954Z,55.50
2018-08-23T17:36:12.196Z,56.10
2018-08-23T17:38:40.415Z,56.30
2018-08-23T17:41:08.652Z,55.50
2018-08-23T17:43:36.866Z,55.60
2018-08-23T17:46:05.120Z,56.20
2018-08-23T17:48:33.416Z,56.90
2018-08-23T17:51:01.576Z,57.50
2018-08-23T17:53:29.800Z,57.70
2018-08-23T17:55:58.032Z,58.60
2018-08-23T17:58:26.250Z,59.60
2018-08-23T18:00:54.527Z,59.90
2018-08-23T18:03:22.710Z,60.90
2018-08-23T18:05:51.485Z,61.40
2018-08-23T18:08:19.690Z,66.30
2018-08-23T18:10:47.923Z,67.80
2018-08-23T18:13:16.139Z,81.90
2018-08-23T18:15:49.880Z,80.60
2018-08-23T18:18:18.086Z,84.20
2018-08-23T18:20:46.314Z,90.10
2018-08-23T18:23:14.531Z,95.90
2018-08-23T18:25:42.780Z,97.90
2018-08-23T18:28:10.999Z,98.90
2018-08-23T18:30:39.236Z,99.90
2018-08-23T18:33:07.486Z,99.90
2018-08-23T18:35:35.724Z,99.90
2018-08-23T18:38:03.949Z,99.90
2018-08-23T18:40:32.171Z,99.90
2018-08-23T18:43:00.389Z,99.90
2018-08-23T18:45:28.602Z,99.90
2018-08-23T18:47:56.838Z,99.90
2018-08-23T18:50:25.057Z,99.90
2018-08-23T18:52:53.298Z,99.90
2018-08-23T18:55:21.498Z,99.90
2018-08-23T18:57:49.731Z,99.90
2018-08-23T19:00:18.024Z,99.90
2018-08-23T19:02:46.180Z,99.90
2018-08-23T19:05:14.390Z,99.90
2018-08-23T19:07:43.468Z,99.90
2018-08-23T19:10:12.247Z,99.90
2018-08-23T19:12:40.457Z,99.90
2018-08-23T19:15:08.788Z,99.90
2018-08-23T19:17:38.927Z,99.90
2018-08-23T19:20:08.112Z,99.90
2018-08-23T19:22:36.423Z,99.90
2018-08-23T19:25:04.753Z,99.90
2018-08-23T19:27:32.955Z,99.90
2018-08-23T19:30:01.183Z,99.90
2018-08-23T19:32:29.422Z,99.90
2018-08-23T19:34:57.633Z,99.90
2018-08-23T19:37:25.853Z,99.90
2018-08-23T19:39:54.432Z,99.90
2018-08-23T19:42:22.699Z,99.90
2018-08-23T19:44:56.447Z,99.90
2018-08-23T19:47:30.194Z,99.90
2018-08-23T19:49:59.720Z,99.90
2018-08-23T19:52:27.980Z,99.90
2018-08-23T19:54:56.186Z,99.90
2018-08-23T19:57:24.423Z,99.90
2018-08-23T19:59:52.645Z,99.90
2018-08-23T20:02:20.873Z,99.90
2018-08-23T20:04:49.086Z,99.90
2018-08-23T20:07:17.307Z,99.90
2018-08-23T20:09:45.538Z,99.90
2018-08-23T20:12:13.805Z,99.90
2018-08-23T20:14:42.013Z,99.90
2018-08-23T20:17:10.230Z,99.90
2018-08-23T20:19:38.450Z,99.90
2018-08-23T20:22:07.827Z,99.90
2018-08-23T20:24:36.267Z,99.90
2018-08-23T20:27:04.496Z,99.90
2018-08-23T20:29:32.961Z,99.90
2018-08-23T20:32:01.415Z,99.90
2018-08-23T20:34:29.679Z,99.90
2018-08-23T20:36:57.906Z,99.90
2018-08-23T20:39:26.362Z,99.90
2018-08-23T20:41:54.375Z,99.90
2018-08-23T20:44:22.616Z,99.90
2018-08-23T20:46:50.891Z,99.90
2018-08-23T20:49:19.105Z,99.90
2018-08-23T20:51:47.326Z,99.90
2018-08-23T20:54:15.555Z,99.90
2018-08-23T20:56:43.774Z,99.90
2018-08-23T20:59:12.003Z,99.90
2018-08-23T21:01:40.206Z,99.90
2018-08-23T21:04:08.696Z,99.90
2018-08-23T21:06:36.873Z,99.90
2018-08-23T21:09:08.934Z,99.90
2018-08-23T21:11:37.337Z,99.90
2018-08-23T21:14:05.559Z,99.90
2018-08-23T21:16:33.779Z,99.90
2018-08-23T21:19:02.001Z,99.90
2018-08-23T21:21:30.220Z,99.90
2018-08-23T21:23:58.446Z,99.90
2018-08-23T21:26:26.670Z,99.90
2018-08-23T21:28:54.939Z,99.90
2018-08-23T21:31:23.172Z,99.90
2018-08-23T21:33:51.414Z,99.90
2018-08-23T21:36:19.642Z,99.90
2018-08-23T21:38:47.857Z,99.90
2018-08-23T21:41:16.092Z,99.90
2018-08-23T21:43:44.306Z,99.90
2018-08-23T21:46:12.528Z,99.90
2018-08-23T21:48:40.771Z,99.90
2018-08-23T21:51:09.023Z,99.90
2018-08-23T21:53:37.240Z,99.90
2018-08-23T21:56:05.457Z,99.90
2018-08-23T21:58:33.687Z,99.90
2018-08-23T22:01:05.881Z,99.90
2018-08-23T22:03:34.156Z,99.90
2018-08-23T22:06:02.370Z,99.90
2018-08-23T22:08:30.593Z,99.90
2018-08-23T22:10:58.816Z,99.90
2018-08-23T22:13:27.041Z,99.90
2018-08-23T22:15:55.266Z,99.90
2018-08-23T22:18:23.492Z,99.90
2018-08-23T22:20:51.725Z,99.90
2018-08-23T22:23:19.926Z,99.90
2018-08-23T22:25:48.146Z,99.90
2018-08-23T22:28:16.370Z,99.90
2018-08-23T22:30:44.594Z,99.90
2018-08-23T22:33:13.338Z,99.90
2018-08-23T22:35:41.745Z,99.90
2018-08-23T22:38:10.434Z,99.90
2018-08-23T22:40:38.769Z,99.90
2018-08-23T22:43:07.269Z,99.90
2018-08-23T22:45:35.530Z,99.90
2018-08-23T22:48:03.764Z,99.90
2018-08-23T22:50:32.094Z,99.90
2018-08-23T22:53:00.317Z,99.90
2018-08-23T22:55:28.539Z,99.90
2018-08-23T22:57:56.759Z,99.90
2018-08-23T23:00:30.457Z,99.90
2018-08-23T23:02:58.680Z,99.90
2018-08-23T23:05:26.904Z,99.90
2018-08-23T23:07:55.150Z,99.90
2018-08-23T23:10:23.379Z,99.90
2018-08-23T23:12:51.615Z,99.90
2018-08-23T23:15:24.899Z,99.90
2018-08-23T23:17:53.132Z,99.90
2018-08-23T23:20:21.348Z,99.90
2018-08-23T23:22:49.564Z,99.90
2018-08-23T23:25:17.777Z,99.90
2018-08-23T23:27:45.991Z,99.90
2018-08-23T23:30:14.209Z,99.90
2018-08-23T23:32:42.479Z,99.90
2018-08-23T23:35:10.710Z,99.90
2018-08-23T23:37:38.954Z,99.90
2018-08-23T23:40:07.194Z,99.90
2018-08-23T23:42:35.532Z,99.90
2018-08-23T23:45:03.899Z,99.90
2018-08-23T23:47:32.128Z,99.90
2018-08-23T23:50:00.349Z,99.90
2018-08-23T23:52:28.570Z,99.90
2018-08-23T23:54:56.786Z,99.90
2018-08-23T23:57:25.010Z,99.90
2018-08-23T23:59:53.299Z,99.90
